Kentucky Observed Data For Previous 48 Hours

Caption
Day and Hour Reservoir Elevation (behind dam)* Tailwater Elevation (below dam)* Average Hourly Discharge*
8/18/2018 1 AM CDT 357.06 302.59 34,731
8/18/2018 2 AM CDT 357.07 302.81 34,733
8/18/2018 3 AM CDT 357.10 302.71 34,656
8/18/2018 4 AM CDT 357.08 302.75 34,792
8/18/2018 5 AM CDT 357.10 302.95 34,943
8/18/2018 6 AM CDT 357.09 302.87 34,930
8/18/2018 7 AM CDT 357.11 302.97 34,886
8/18/2018 8 AM CDT 357.07 302.93 35,053
8/18/2018 9 AM CDT 357.09 302.95 35,121
8/18/2018 10 AM CDT 357.06 302.97 34,970
8/18/2018 11 AM CDT 357.03 303.21 35,053
8/18/2018 12 PM CDT 357.00 303.10 35,120
8/18/2018 1 PM CDT 356.96 303.04 35,170
8/18/2018 2 PM CDT 356.99 303.07 34,320
8/18/2018 3 PM CDT 356.97 303.06 33,456
8/18/2018 4 PM CDT 356.99 303.13 33,303
8/18/2018 5 PM CDT 356.94 303.14 33,162
8/18/2018 6 PM CDT 356.88 303.47 40,981
8/18/2018 7 PM CDT 356.88 303.60 41,511
8/18/2018 8 PM CDT 356.88 303.60 41,632
8/18/2018 9 PM CDT 356.89 303.64 41,651
8/18/2018 10 PM CDT 356.92 303.75 41,581
8/18/2018 11 PM CDT 356.92 303.71 41,609
8/19/2018 12 AM CDT 356.95 303.70 41,591
8/19/2018 1 AM CDT 356.97 303.72 41,571
8/19/2018 2 AM CDT 356.97 303.78 41,641
8/19/2018 3 AM CDT 356.97 303.82 41,711
8/19/2018 4 AM CDT 356.98 303.84 41,685
8/19/2018 5 AM CDT 356.97 303.79 41,701
8/19/2018 6 AM CDT 356.99 303.81 41,672
8/19/2018 7 AM CDT 356.99 303.89 41,659
8/19/2018 8 AM CDT 357.00 303.86 41,771
8/19/2018 9 AM CDT 356.99 303.84 41,808
8/19/2018 10 AM CDT 356.99 303.99 41,713
8/19/2018 11 AM CDT 356.98 303.89 41,643
8/19/2018 12 PM CDT 356.94 303.95 41,859
8/19/2018 1 PM CDT 356.96 303.89 41,920
8/19/2018 2 PM CDT 356.96 303.92 41,872
8/19/2018 3 PM CDT 356.96 303.89 41,931
8/19/2018 4 PM CDT 356.93 303.96 41,995
8/19/2018 5 PM CDT 356.92 303.90 42,102
8/19/2018 6 PM CDT 356.91 303.92 42,007
8/19/2018 7 PM CDT 356.87 303.93 42,002
8/19/2018 8 PM CDT 356.87 303.96 42,300
8/19/2018 9 PM CDT 356.86 303.99 42,362
8/19/2018 10 PM CDT 356.86 304.04 42,395
8/19/2018 11 PM CDT 356.87 303.95 42,280
8/20/2018 12 AM CDT 356.86 303.99 42,291
8/20/2018 1 AM CDT 356.91 303.87 39,513
8/20/2018 2 AM CDT 356.97 303.86 39,267
8/20/2018 3 AM CDT 357.03 303.77 39,028
8/20/2018 4 AM CDT 357.05 303.72 39,081
8/20/2018 5 AM CDT 357.04 303.72 38,958
8/20/2018 6 AM CDT 357.04 303.69 38,980
8/20/2018 7 AM CDT 357.04 303.72 39,029
8/20/2018 8 AM CDT 357.02 303.60 39,074
8/20/2018 9 AM CDT 356.99 303.62 39,086
8/20/2018 10 AM CDT 356.98 303.59 39,077
8/20/2018 11 AM CDT 356.99 303.53 38,923
8/20/2018 12 PM CDT 356.99 303.40 38,712
8/20/2018 1 PM CDT 357.00 303.33 38,701
8/20/2018 2 PM CDT 357.01 303.28 38,687
8/20/2018 3 PM CDT 356.95 303.23 38,674
8/20/2018 4 PM CDT 356.96 303.27 38,698
8/20/2018 5 PM CDT 356.96 303.27 38,613
8/20/2018 6 PM CDT 356.93 303.15 38,478
8/20/2018 7 PM CDT 356.91 303.13 38,650

Elevations are in feet above sea level. Discharges are in cubic feet per second and are reported at the end of the hour.